Time;durP1;ratioP1;P1;durP2;ratioP2;P2;SDS_P1;SDS_P2;PMS_P1;PMS_P2;Temp;Humidity;BMP_temperature;BMP_pressure;BME280_temperature;BME280_humidity;BME280_pressure;Samples;Min_cycle;Max_cycle;Signal;HPM_P1;HPM_P2
2021/05/26 00:01:59;;;;;;;1.80;0.93;;;8.00;74.10;;;;;;5060892;28;20037;-79
2021/05/26 00:04:25;;;;;;;1.02;0.80;;;8.10;73.00;;;;;;5061927;28;20051;-79
2021/05/26 00:06:51;;;;;;;1.42;1.20;;;8.20;71.80;;;;;;5066946;28;20105;-79
2021/05/26 00:09:16;;;;;;;0.93;0.90;;;8.20;71.90;;;;;;5049622;28;20020;-79
2021/05/26 00:11:42;;;;;;;1.00;0.98;;;8.30;71.80;;;;;;5065535;28;20025;-79
2021/05/26 00:14:08;;;;;;;1.05;0.82;;;8.30;71.80;;;;;;5060148;28;20044;-79
2021/05/26 00:16:34;;;;;;;1.38;1.10;;;8.30;71.60;;;;;;5046972;28;20028;-79
2021/05/26 00:19:00;;;;;;;1.65;0.90;;;8.30;71.50;;;;;;5049820;28;20581;-79
2021/05/26 00:21:26;;;;;;;1.75;0.90;;;8.30;71.60;;;;;;5046090;28;20021;-79
2021/05/26 00:23:51;;;;;;;1.23;0.93;;;8.40;71.70;;;;;;5074136;28;20033;-78
2021/05/26 00:26:17;;;;;;;2.10;1.00;;;8.40;71.50;;;;;;5070743;28;20074;-79
2021/05/26 00:28:45;;;;;;;0.82;0.80;;;8.40;70.80;;;;;;5067307;28;20020;-80
2021/05/26 00:31:12;;;;;;;1.60;1.10;;;8.40;71.80;;;;;;5058491;28;20637;-79
2021/05/26 00:33:37;;;;;;;0.98;0.98;;;8.40;70.30;;;;;;5068960;28;20044;-79
2021/05/26 00:36:04;;;;;;;5.30;1.20;;;8.40;70.30;;;;;;5071638;28;20028;-79
2021/05/26 00:38:30;;;;;;;1.65;0.73;;;8.50;70.60;;;;;;5069571;28;20174;-79
2021/05/26 00:40:55;;;;;;;1.05;0.75;;;8.40;70.90;;;;;;5051893;28;20037;-79
2021/05/26 00:43:21;;;;;;;1.23;0.82;;;8.50;70.50;;;;;;5069832;28;20060;-79
2021/05/26 00:45:47;;;;;;;1.80;1.25;;;8.50;70.70;;;;;;5050404;28;20506;-79
2021/05/26 00:48:13;;;;;;;0.93;0.70;;;8.50;70.10;;;;;;5074720;28;20031;-79
2021/05/26 00:50:40;;;;;;;1.92;1.00;;;8.50;69.70;;;;;;5064381;28;20905;-79
2021/05/26 00:53:07;;;;;;;0.80;0.80;;;8.60;69.50;;;;;;5075866;28;20051;-79
2021/05/26 00:55:34;;;;;;;1.10;1.08;;;8.60;69.90;;;;;;5052635;28;20108;-79
2021/05/26 00:58:01;;;;;;;2.45;1.00;;;8.60;69.70;;;;;;5073676;28;20025;-79
2021/05/26 01:00:28;;;;;;;1.13;1.02;;;8.60;70.40;;;;;;5068864;28;20025;-79
2021/05/26 01:02:55;;;;;;;2.17;1.17;;;8.60;70.80;;;;;;5066038;28;20029;-79
2021/05/26 01:05:22;;;;;;;1.40;0.80;;;8.50;70.50;;;;;;5056794;28;20476;-79
2021/05/26 01:07:48;;;;;;;2.22;1.30;;;8.50;70.70;;;;;;5067517;28;20016;-79
2021/05/26 01:10:17;;;;;;;1.48;0.88;;;8.50;70.70;;;;;;5046909;28;20044;-79
2021/05/26 01:12:43;;;;;;;1.05;0.90;;;8.50;70.40;;;;;;5065885;28;20035;-79
2021/05/26 01:15:11;;;;;;;0.90;0.90;;;8.50;70.90;;;;;;5070237;28;20487;-79
2021/05/26 01:17:37;;;;;;;0.82;0.82;;;8.50;70.00;;;;;;5063277;28;21446;-79
2021/05/26 01:20:11;;;;;;;2.17;0.85;;;8.50;70.90;;;;;;5070278;28;20029;-79
2021/05/26 01:22:37;;;;;;;0.80;0.80;;;8.40;70.60;;;;;;5065059;28;20042;-79
2021/05/26 01:25:07;;;;;;;0.93;0.90;;;8.40;70.60;;;;;;5071846;28;20044;-79
2021/05/26 01:27:33;;;;;;;3.15;0.98;;;8.40;70.90;;;;;;5067452;28;20541;-79
2021/05/26 01:30:00;;;;;;;1.13;0.90;;;8.40;71.10;;;;;;5047328;28;20040;-79
2021/05/26 01:32:26;;;;;;;1.70;1.60;;;8.40;70.30;;;;;;5067557;28;20529;-79
2021/05/26 01:34:52;;;;;;;1.05;0.98;;;8.40;69.80;;;;;;5066239;28;20035;-79
2021/05/26 01:37:18;;;;;;;1.17;0.85;;;8.50;70.00;;;;;;5049379;28;20123;-79
2021/05/26 01:39:50;;;;;;;1.25;1.00;;;8.50;69.40;;;;;;5050656;28;20051;-79
2021/05/26 01:42:32;;;;;;;1.98;1.35;;;8.60;69.00;;;;;;5056366;28;20562;-79
2021/05/26 01:44:59;;;;;;;1.67;0.90;;;8.60;68.80;;;;;;5068879;28;20111;-79
2021/05/26 01:47:24;;;;;;;2.22;1.05;;;8.60;68.50;;;;;;5071142;28;20026;-79
2021/05/26 01:49:50;;;;;;;0.90;0.90;;;8.60;68.50;;;;;;5064566;28;20085;-79
2021/05/26 01:52:16;;;;;;;1.27;0.90;;;8.60;69.50;;;;;;5055332;28;20020;-79
2021/05/26 01:54:42;;;;;;;3.65;0.95;;;8.60;69.00;;;;;;5056741;28;20031;-79
2021/05/26 01:57:07;;;;;;;1.10;0.82;;;8.60;70.20;;;;;;5072577;28;20415;-79
2021/05/26 01:59:33;;;;;;;1.67;0.90;;;8.60;70.90;;;;;;5049510;28;20485;-79
2021/05/26 02:01:59;;;;;;;1.00;1.00;;;8.50;70.60;;;;;;5052402;28;20452;-79
2021/05/26 02:04:25;;;;;;;2.60;0.90;;;8.50;70.20;;;;;;5068882;28;20095;-79
2021/05/26 02:07:07;;;;;;;0.80;0.80;;;8.60;70.40;;;;;;5070312;28;20028;-79
2021/05/26 02:09:34;;;;;;;0.93;0.93;;;8.60;70.50;;;;;;5070749;28;20027;-79
2021/05/26 02:14:44;;;;;;;5.00;2.10;;;8.60;70.30;;;;;;5070289;28;20043;-79
2021/05/26 02:17:10;;;;;;;0.90;0.80;;;8.60;70.30;;;;;;5056655;28;20040;-79
2021/05/26 02:19:36;;;;;;;1.77;0.90;;;8.70;70.00;;;;;;5069227;28;20028;-79
2021/05/26 02:22:02;;;;;;;0.82;0.82;;;8.60;69.50;;;;;;5053253;28;20074;-79
2021/05/26 02:24:27;;;;;;;0.88;0.77;;;8.60;69.40;;;;;;5069565;28;20024;-79
2021/05/26 02:26:53;;;;;;;2.42;1.08;;;8.60;70.10;;;;;;5069800;28;20485;-80
2021/05/26 02:29:19;;;;;;;2.47;1.73;;;8.60;70.10;;;;;;5050271;28;20054;-79
2021/05/26 02:31:45;;;;;;;1.13;0.93;;;8.50;70.80;;;;;;5046319;28;20028;-79
2021/05/26 02:34:10;;;;;;;0.88;0.88;;;8.60;70.70;;;;;;5049255;28;20157;-79
2021/05/26 02:36:38;;;;;;;1.23;0.70;;;8.50;71.10;;;;;;5062271;28;20040;-79
2021/05/26 02:39:06;;;;;;;0.90;0.90;;;8.50;72.00;;;;;;5068944;28;21390;-79
2021/05/26 02:41:31;;;;;;;0.70;0.70;;;8.50;70.60;;;;;;5066800;28;20100;-79
2021/05/26 02:43:57;;;;;;;0.93;0.90;;;8.50;70.20;;;;;;5050856;28;20048;-79
2021/05/26 02:46:23;;;;;;;1.27;0.90;;;8.50;71.60;;;;;;5051171;28;20030;-79
2021/05/26 02:48:48;;;;;;;1.25;1.00;;;8.50;71.70;;;;;;5066762;28;20057;-79
2021/05/26 02:51:14;;;;;;;0.80;0.80;;;8.50;71.60;;;;;;5072175;28;20129;-79
2021/05/26 02:53:39;;;;;;;3.47;1.10;;;8.50;71.60;;;;;;5070004;28;20024;-79
2021/05/26 02:56:05;;;;;;;1.85;1.20;;;8.50;72.00;;;;;;5047335;28;20028;-79
2021/05/26 02:58:31;;;;;;;1.95;1.35;;;8.40;72.10;;;;;;5072542;28;20032;-79
2021/05/26 03:00:56;;;;;;;1.70;0.90;;;8.40;72.00;;;;;;5052055;28;20119;-79
2021/05/26 03:03:22;;;;;;;2.00;0.90;;;8.40;72.30;;;;;;5069625;28;20036;-79
2021/05/26 03:05:48;;;;;;;3.00;1.00;;;8.40;72.60;;;;;;5070796;28;20036;-79
2021/05/26 03:08:13;;;;;;;0.95;0.85;;;8.30;72.60;;;;;;5068429;28;20020;-79
2021/05/26 03:10:39;;;;;;;1.45;0.70;;;8.40;72.60;;;;;;5045871;28;20032;-79
2021/05/26 03:13:05;;;;;;;1.10;0.90;;;8.30;72.50;;;;;;5063860;28;20108;-79
2021/05/26 03:15:30;;;;;;;1.75;0.98;;;8.30;72.50;;;;;;5068931;28;20042;-79
2021/05/26 03:17:56;;;;;;;1.02;0.88;;;8.30;72.50;;;;;;5065679;28;20106;-79
2021/05/26 03:20:22;;;;;;;0.85;0.80;;;8.30;72.40;;;;;;5068454;28;20462;-79
2021/05/26 03:22:48;;;;;;;0.73;0.63;;;8.30;72.50;;;;;;5050526;28;20040;-79
2021/05/26 03:25:15;;;;;;;1.02;0.98;;;8.40;73.10;;;;;;5066334;28;20023;-79
2021/05/26 03:27:41;;;;;;;2.85;0.80;;;8.40;72.60;;;;;;5066379;28;20111;-79
2021/05/26 03:30:13;;;;;;;1.10;0.95;;;8.30;72.70;;;;;;5069208;28;20063;-79
2021/05/26 03:32:40;;;;;;;0.70;0.70;;;8.30;73.00;;;;;;5060357;28;20478;-79
2021/05/26 03:35:08;;;;;;;3.40;1.00;;;8.30;73.10;;;;;;5048581;28;20113;-78
2021/05/26 03:37:33;;;;;;;0.75;0.75;;;8.20;73.20;;;;;;5074322;28;20106;-78
2021/05/26 03:39:59;;;;;;;2.13;1.20;;;8.10;73.10;;;;;;5057906;28;20028;-78
2021/05/26 03:42:25;;;;;;;1.45;1.00;;;8.00;73.80;;;;;;5074001;28;20027;-78
2021/05/26 03:44:50;;;;;;;2.55;1.00;;;8.00;74.50;;;;;;5059083;28;20093;-79
2021/05/26 03:47:17;;;;;;;1.30;0.88;;;7.90;73.70;;;;;;5057455;28;20031;-79
2021/05/26 03:49:43;;;;;;;1.58;0.70;;;7.80;74.20;;;;;;5075924;28;20013;-79
2021/05/26 03:52:09;;;;;;;0.85;0.85;;;7.80;74.30;;;;;;5075996;28;20442;-78
2021/05/26 03:54:35;;;;;;;2.10;1.10;;;7.80;74.30;;;;;;5075457;28;20080;-78
2021/05/26 03:57:03;;;;;;;2.13;1.10;;;7.90;74.20;;;;;;5076907;28;20067;-78
2021/05/26 03:59:28;;;;;;;0.75;0.75;;;7.90;74.80;;;;;;5061702;28;20505;-78
2021/05/26 04:01:54;;;;;;;1.50;1.17;;;8.00;75.50;;;;;;5079763;28;20028;-79
2021/05/26 04:04:20;;;;;;;1.17;1.00;;;8.00;74.90;;;;;;5080318;28;20025;-79
2021/05/26 04:06:45;;;;;;;0.88;0.82;;;8.10;75.50;;;;;;5062414;28;20527;-78
2021/05/26 04:09:11;;;;;;;0.82;0.82;;;8.10;75.70;;;;;;5080046;28;20028;-78
2021/05/26 04:11:37;;;;;;;0.90;0.90;;;8.10;75.60;;;;;;5062572;28;20047;-76
2021/05/26 04:14:03;;;;;;;1.80;0.90;;;8.10;77.00;;;;;;5079592;28;20029;-78
2021/05/26 04:16:29;;;;;;;0.80;0.80;;;8.10;76.60;;;;;;5062240;28;20048;-79
2021/05/26 04:18:55;;;;;;;0.85;0.80;;;8.20;77.00;;;;;;5062196;28;20024;-78
2021/05/26 04:21:21;;;;;;;0.90;0.90;;;8.30;77.60;;;;;;5080103;28;20071;-78
2021/05/26 04:23:46;;;;;;;0.90;0.90;;;8.30;77.30;;;;;;5062083;28;20021;-79
2021/05/26 04:26:12;;;;;;;2.88;1.00;;;8.30;77.10;;;;;;5062049;28;20024;-79
2021/05/26 04:28:45;;;;;;;0.88;0.85;;;8.30;76.80;;;;;;5061032;28;20021;-78
2021/05/26 04:31:12;;;;;;;2.65;1.13;;;8.30;77.60;;;;;;5078850;28;20044;-77
2021/05/26 04:33:39;;;;;;;0.73;0.70;;;8.30;77.80;;;;;;5077630;28;20058;-79
2021/05/26 04:36:06;;;;;;;1.95;1.05;;;8.30;79.00;;;;;;5078566;28;20064;-78
2021/05/26 04:38:32;;;;;;;1.25;1.00;;;8.30;80.00;;;;;;5077635;28;20111;-78
2021/05/26 04:40:59;;;;;;;0.90;0.90;;;8.30;81.20;;;;;;5078033;28;20039;-78
2021/05/26 04:43:26;;;;;;;0.73;0.73;;;8.40;80.00;;;;;;5059874;28;20029;-79
2021/05/26 04:45:52;;;;;;;1.73;0.90;;;8.40;79.70;;;;;;5077696;28;20036;-78
2021/05/26 04:48:18;;;;;;;4.03;0.80;;;8.50;79.10;;;;;;5077355;28;20021;-79
2021/05/26 04:50:44;;;;;;;1.05;1.00;;;8.50;79.30;;;;;;5078657;28;20013;-79
2021/05/26 04:53:09;;;;;;;0.90;0.90;;;8.60;80.30;;;;;;5077785;28;20103;-79
2021/05/26 04:55:35;;;;;;;1.35;1.00;;;8.60;80.60;;;;;;5077792;28;20031;-78
2021/05/26 04:58:03;;;;;;;1.02;1.00;;;8.60;83.10;;;;;;5077533;28;20124;-78
2021/05/26 05:00:29;;;;;;;1.27;1.10;;;8.70;81.20;;;;;;5076963;28;20017;-79
2021/05/26 05:02:59;;;;;;;1.02;0.93;;;8.70;80.30;;;;;;5077024;28;20024;-79
2021/05/26 05:05:32;;;;;;;1.40;1.00;;;8.70;79.70;;;;;;5076936;28;20020;-79
2021/05/26 05:08:02;;;;;;;2.08;1.00;;;8.80;79.70;;;;;;5076964;28;20031;-79
2021/05/26 05:10:28;;;;;;;0.70;0.70;;;8.80;80.60;;;;;;5078032;28;20031;-79
2021/05/26 05:12:53;;;;;;;1.08;1.00;;;8.80;80.20;;;;;;5076699;28;20036;-79
2021/05/26 05:15:19;;;;;;;1.08;1.08;;;8.90;79.30;;;;;;5077229;28;20524;-79
2021/05/26 05:17:46;;;;;;;1.75;1.55;;;8.90;80.00;;;;;;5077157;28;20033;-79
2021/05/26 05:20:14;;;;;;;2.50;0.98;;;9.00;79.40;;;;;;5058311;28;20059;-78
2021/05/26 05:22:40;;;;;;;0.80;0.80;;;9.10;76.70;;;;;;5058633;28;20395;-78
2021/05/26 05:25:06;;;;;;;0.88;0.88;;;9.20;76.30;;;;;;5058922;28;20020;-79
2021/05/26 05:27:32;;;;;;;1.48;1.05;;;9.20;75.80;;;;;;5077575;28;20029;-79
2021/05/26 05:29:57;;;;;;;0.90;0.90;;;9.30;75.60;;;;;;5077475;28;20466;-79
2021/05/26 05:32:23;;;;;;;2.13;0.88;;;9.30;74.80;;;;;;5077258;28;20033;-79
2021/05/26 05:34:49;;;;;;;1.55;0.93;;;9.40;75.60;;;;;;5077312;28;20051;-79
2021/05/26 05:37:14;;;;;;;1.00;1.00;;;9.40;75.90;;;;;;5076653;28;20025;-78
2021/05/26 05:39:40;;;;;;;2.08;1.02;;;9.50;76.60;;;;;;5058894;28;20067;-79
2021/05/26 05:42:06;;;;;;;1.25;0.80;;;9.50;75.40;;;;;;5076597;28;20029;-78
2021/05/26 05:44:31;;;;;;;1.38;1.00;;;9.50;74.70;;;;;;5076930;28;20031;-80
2021/05/26 05:46:57;;;;;;;0.90;0.77;;;9.50;74.30;;;;;;5077033;28;20024;-79
2021/05/26 05:49:23;;;;;;;1.67;1.00;;;9.60;73.60;;;;;;5069404;28;20035;-78
2021/05/26 05:51:50;;;;;;;1.52;1.42;;;9.70;75.30;;;;;;5057163;28;20031;-79
2021/05/26 05:54:15;;;;;;;1.15;1.05;;;9.70;75.00;;;;;;5056353;28;20021;-78
2021/05/26 05:56:41;;;;;;;1.92;1.00;;;9.70;75.20;;;;;;5056064;28;20134;-78
2021/05/26 05:59:08;;;;;;;3.70;1.35;;;9.70;75.60;;;;;;5055716;28;20490;-78
2021/05/26 06:01:33;;;;;;;1.83;0.80;;;9.70;75.30;;;;;;5054858;28;20086;-78
2021/05/26 06:03:59;;;;;;;1.02;0.80;;;9.80;74.70;;;;;;5055965;28;20076;-78
2021/05/26 06:06:25;;;;;;;1.58;1.10;;;9.80;74.90;;;;;;5055597;28;20021;-78
2021/05/26 06:08:51;;;;;;;1.75;1.20;;;9.80;74.20;;;;;;5038336;28;20033;-78
2021/05/26 06:11:16;;;;;;;1.77;1.10;;;9.80;74.50;;;;;;5056131;28;20025;-78
2021/05/26 06:13:46;;;;;;;1.95;1.10;;;9.90;74.80;;;;;;5071831;28;20084;-79
2021/05/26 06:16:12;;;;;;;1.30;1.00;;;9.90;75.40;;;;;;5075840;28;20016;-79
2021/05/26 06:18:37;;;;;;;2.05;1.10;;;9.90;75.00;;;;;;5075204;28;20042;-79
2021/05/26 06:21:04;;;;;;;1.60;1.10;;;10.00;74.80;;;;;;5072095;28;20074;-79
2021/05/26 06:23:29;;;;;;;4.03;1.35;;;10.00;74.80;;;;;;5070594;28;20055;-79
2021/05/26 06:25:55;;;;;;;1.23;1.00;;;10.10;75.20;;;;;;5066076;28;20049;-78
2021/05/26 06:28:21;;;;;;;3.45;1.15;;;10.10;75.90;;;;;;5046317;28;20040;-79
2021/05/26 06:30:47;;;;;;;1.65;1.05;;;10.20;76.20;;;;;;5064102;28;20029;-79
2021/05/26 06:33:12;;;;;;;1.45;1.20;;;10.20;75.50;;;;;;5051858;28;20028;-79
2021/05/26 06:35:38;;;;;;;1.00;0.90;;;10.30;75.10;;;;;;5067789;28;20074;-79
2021/05/26 06:38:04;;;;;;;0.82;0.82;;;10.30;72.50;;;;;;5048730;28;20521;-78
2021/05/26 06:40:30;;;;;;;3.10;1.00;;;10.30;72.80;;;;;;5066077;28;20020;-79
2021/05/26 06:42:55;;;;;;;0.90;0.90;;;10.40;73.80;;;;;;5060937;28;20028;-79
2021/05/26 06:45:21;;;;;;;1.20;0.98;;;10.40;74.30;;;;;;5063082;28;20035;-79
2021/05/26 06:47:47;;;;;;;1.55;1.00;;;10.40;74.80;;;;;;5075653;28;20461;-79
2021/05/26 06:50:13;;;;;;;2.25;1.40;;;10.40;73.20;;;;;;5070141;28;20032;-79
2021/05/26 06:52:39;;;;;;;4.03;1.23;;;10.50;73.40;;;;;;5068417;28;20017;-78
2021/05/26 06:55:05;;;;;;;1.88;0.80;;;10.50;73.40;;;;;;5070086;28;20062;-78
2021/05/26 06:57:31;;;;;;;1.33;1.23;;;10.60;73.80;;;;;;5066098;28;20616;-78
2021/05/26 06:59:57;;;;;;;1.65;1.08;;;10.60;73.50;;;;;;5069371;28;20021;-78
2021/05/26 07:02:22;;;;;;;0.98;0.90;;;10.70;72.70;;;;;;5069629;28;20124;-79
2021/05/26 07:04:48;;;;;;;1.45;1.15;;;10.70;72.90;;;;;;5045980;28;20025;-78
2021/05/26 07:07:14;;;;;;;1.23;1.15;;;10.80;74.00;;;;;;5067059;28;20020;-79
2021/05/26 07:09:39;;;;;;;3.65;1.05;;;10.80;73.10;;;;;;5049860;28;20491;-79
2021/05/26 07:12:05;;;;;;;2.70;1.17;;;10.80;73.40;;;;;;5054619;28;20075;-79
2021/05/26 07:14:31;;;;;;;1.13;1.00;;;10.90;73.20;;;;;;5066744;28;20032;-78
2021/05/26 07:16:57;;;;;;;0.80;0.80;;;10.90;71.80;;;;;;5068727;28;20043;-79
2021/05/26 07:19:23;;;;;;;1.02;1.00;;;11.00;71.60;;;;;;5051896;28;20040;-79
2021/05/26 07:21:49;;;;;;;1.67;1.17;;;11.00;71.80;;;;;;5064807;28;20479;-79
2021/05/26 07:24:15;;;;;;;3.00;0.88;;;11.10;71.10;;;;;;5071469;28;20115;-79
2021/05/26 07:26:40;;;;;;;1.10;1.00;;;11.10;70.00;;;;;;5045105;28;20044;-79
2021/05/26 07:29:06;;;;;;;1.67;1.20;;;11.10;71.00;;;;;;5066889;28;20055;-79
2021/05/26 07:31:32;;;;;;;1.33;0.80;;;11.20;71.10;;;;;;5067421;28;20123;-78
2021/05/26 07:33:58;;;;;;;2.72;0.90;;;11.20;71.00;;;;;;5069960;28;20056;-79
2021/05/26 07:36:25;;;;;;;1.13;0.90;;;11.30;71.10;;;;;;5065758;28;20021;-79
2021/05/26 07:38:51;;;;;;;0.82;0.82;;;11.30;70.60;;;;;;5061879;28;20091;-79
2021/05/26 07:41:17;;;;;;;0.90;0.90;;;11.40;71.60;;;;;;5060468;28;20040;-80
2021/05/26 07:43:43;;;;;;;0.80;0.80;;;11.40;72.10;;;;;;5047078;28;20050;-79
2021/05/26 07:46:08;;;;;;;2.20;0.90;;;11.40;71.80;;;;;;5050008;28;20048;-80
2021/05/26 07:48:36;;;;;;;1.70;0.80;;;11.50;71.30;;;;;;5066095;28;20024;-80
2021/05/26 07:51:03;;;;;;;1.10;0.80;;;11.60;72.00;;;;;;5066276;28;20112;-80
2021/05/26 07:53:29;;;;;;;1.48;0.75;;;11.60;71.50;;;;;;5065303;28;20044;-79
2021/05/26 07:55:55;;;;;;;1.20;0.80;;;11.70;71.10;;;;;;5066770;28;20028;-79
2021/05/26 07:58:21;;;;;;;0.88;0.88;;;11.70;70.50;;;;;;5067585;28;20087;-79
2021/05/26 08:00:46;;;;;;;1.77;0.80;;;11.70;69.70;;;;;;5043482;28;20036;-80
2021/05/26 08:03:12;;;;;;;0.82;0.82;;;11.70;68.00;;;;;;5068963;28;20549;-79
2021/05/26 08:05:38;;;;;;;2.72;0.95;;;11.80;69.20;;;;;;5068920;28;20017;-79
2021/05/26 08:08:04;;;;;;;1.70;1.00;;;11.80;69.20;;;;;;5071998;28;20025;-79
2021/05/26 08:10:29;;;;;;;1.65;0.80;;;11.90;70.20;;;;;;5066615;28;20070;-80
2021/05/26 08:12:55;;;;;;;1.17;0.55;;;11.90;70.20;;;;;;5073221;28;20060;-79
2021/05/26 08:15:21;;;;;;;1.83;0.70;;;12.00;69.50;;;;;;5065695;28;20029;-80
2021/05/26 08:17:47;;;;;;;0.57;0.57;;;12.00;69.60;;;;;;5048772;28;20070;-80
2021/05/26 08:20:14;;;;;;;0.70;0.70;;;12.00;69.60;;;;;;5070554;28;20036;-79
2021/05/26 08:22:40;;;;;;;3.13;0.90;;;12.00;67.10;;;;;;5058502;28;20044;-78
2021/05/26 08:25:06;;;;;;;1.67;0.80;;;12.00;67.40;;;;;;5054947;28;20040;-79
2021/05/26 08:27:32;;;;;;;1.00;0.90;;;12.00;68.10;;;;;;5055571;28;20045;-78
2021/05/26 08:30:01;;;;;;;0.90;0.75;;;12.00;67.30;;;;;;5054706;28;20037;-78
2021/05/26 08:32:28;;;;;;;1.60;0.90;;;12.00;65.70;;;;;;5061527;28;20040;-79
2021/05/26 08:34:55;;;;;;;0.68;0.60;;;12.10;66.20;;;;;;5075020;28;20494;-79
2021/05/26 08:37:22;;;;;;;1.40;0.77;;;12.10;66.30;;;;;;5073778;28;20029;-79
2021/05/26 08:39:47;;;;;;;1.58;0.73;;;12.10;67.20;;;;;;5075420;28;20020;-79
2021/05/26 08:42:18;;;;;;;1.20;0.60;;;12.20;68.10;;;;;;5056447;28;20021;-79
2021/05/26 08:44:44;;;;;;;4.05;1.45;;;12.20;66.60;;;;;;5077042;28;20483;-79
2021/05/26 08:47:19;;;;;;;3.83;1.48;;;12.20;65.90;;;;;;5075998;28;20381;-79
2021/05/26 08:49:47;;;;;;;5.10;1.42;;;12.20;65.60;;;;;;5058962;28;20486;-79
2021/05/26 08:52:15;;;;;;;1.45;0.70;;;12.20;65.60;;;;;;5076145;28;20028;-79
2021/05/26 08:54:47;;;;;;;1.20;0.98;;;12.30;64.80;;;;;;5076219;28;20028;-78
2021/05/26 08:57:16;;;;;;;1.75;1.00;;;12.30;64.20;;;;;;5075623;28;20032;-79
2021/05/26 08:59:42;;;;;;;4.03;1.00;;;12.30;65.30;;;;;;5059332;28;20076;-79
2021/05/26 09:02:12;;;;;;;1.77;0.70;;;12.40;64.30;;;;;;5054853;28;20044;-79
2021/05/26 09:04:39;;;;;;;1.13;1.00;;;12.40;65.20;;;;;;5037374;28;20083;-78
2021/05/26 09:07:16;;;;;;;0.93;0.90;;;12.50;64.10;;;;;;5054737;28;20059;-78
2021/05/26 09:09:48;;;;;;;1.77;0.90;;;12.60;65.90;;;;;;5055811;28;20112;-78
2021/05/26 09:12:33;;;;;;;1.83;0.80;;;12.60;66.30;;;;;;5055024;28;20021;-78
2021/05/26 09:15:22;;;;;;;2.00;0.80;;;12.70;65.30;;;;;;5038859;28;20055;-79
2021/05/26 09:17:56;;;;;;;2.10;0.90;;;12.70;66.00;;;;;;5051207;28;20068;-77
2021/05/26 09:20:23;;;;;;;1.52;0.93;;;12.70;63.30;;;;;;5056323;28;20048;-79
2021/05/26 09:23:05;;;;;;;2.13;0.73;;;12.70;65.70;;;;;;5056194;28;20029;-77
2021/05/26 09:25:33;;;;;;;2.28;0.82;;;12.70;66.10;;;;;;5056700;28;20033;-78
2021/05/26 09:28:23;;;;;;;1.85;0.73;;;12.70;66.80;;;;;;5064743;28;20095;-78
2021/05/26 09:30:58;;;;;;;3.67;0.98;;;12.70;66.20;;;;;;5067461;28;20040;-79
2021/05/26 09:33:40;;;;;;;2.80;0.90;;;12.70;66.30;;;;;;5075342;28;20027;-79
2021/05/26 09:36:11;;;;;;;4.05;1.00;;;12.70;67.20;;;;;;5073965;28;20024;-79
2021/05/26 09:38:37;;;;;;;2.67;1.10;;;12.60;65.30;;;;;;5081293;28;20042;-79
2021/05/26 09:41:23;;;;;;;1.15;0.88;;;12.60;66.00;;;;;;5054077;28;20032;-79
2021/05/26 09:43:54;;;;;;;2.33;1.30;;;12.60;66.50;;;;;;5070941;28;20108;-79
2021/05/26 09:46:21;;;;;;;1.52;1.00;;;12.60;67.40;;;;;;5065724;28;20571;-79
2021/05/26 09:48:59;;;;;;;2.05;0.68;;;12.60;67.00;;;;;;5068348;28;20645;-79
2021/05/26 09:51:29;;;;;;;2.05;0.95;;;12.60;66.20;;;;;;5067557;28;20085;-79
2021/05/26 09:54:10;;;;;;;2.33;1.45;;;12.60;66.00;;;;;;5065753;28;20040;-79
2021/05/26 09:56:36;;;;;;;1.20;1.02;;;12.60;65.40;;;;;;5067664;28;20025;-80
2021/05/26 09:59:03;;;;;;;0.80;0.80;;;12.60;65.90;;;;;;5062728;28;20035;-79
2021/05/26 10:01:31;;;;;;;1.80;0.93;;;12.60;66.10;;;;;;5069841;28;20058;-79
2021/05/26 10:03:56;;;;;;;1.83;0.90;;;12.60;65.70;;;;;;5065760;28;20059;-79
2021/05/26 10:06:28;;;;;;;3.17;1.58;;;12.70;65.40;;;;;;5066544;28;20052;-79
2021/05/26 10:08:55;;;;;;;2.63;1.20;;;12.70;64.00;;;;;;5070843;28;20039;-79
2021/05/26 10:11:22;;;;;;;0.77;0.77;;;12.70;65.30;;;;;;5045918;28;20108;-79
2021/05/26 10:13:50;;;;;;;2.97;1.05;;;12.70;65.60;;;;;;5068404;28;20047;-79
2021/05/26 10:16:18;;;;;;;2.90;1.60;;;12.70;66.90;;;;;;5050702;28;20028;-79
2021/05/26 10:18:46;;;;;;;3.05;1.10;;;12.70;66.70;;;;;;5060267;28;20328;-79
2021/05/26 10:21:15;;;;;;;2.80;1.00;;;12.70;68.60;;;;;;5047655;28;20094;-79
2021/05/26 10:23:41;;;;;;;1.48;1.15;;;12.70;67.40;;;;;;5066474;28;20027;-79
2021/05/26 10:26:07;;;;;;;1.33;0.90;;;12.60;66.50;;;;;;5065392;28;20029;-79
2021/05/26 10:28:33;;;;;;;5.18;1.40;;;12.70;66.60;;;;;;5059781;28;20032;-79
2021/05/26 10:31:02;;;;;;;2.08;1.40;;;12.70;67.50;;;;;;5048412;28;20036;-79
2021/05/26 10:33:43;;;;;;;2.75;1.10;;;12.70;67.80;;;;;;5064169;28;20162;-79
2021/05/26 10:36:11;;;;;;;1.20;1.00;;;12.70;68.60;;;;;;5061704;28;20025;-79
2021/05/26 10:38:58;;;;;;;3.03;1.30;;;12.70;69.30;;;;;;5060701;28;21973;-79
2021/05/26 10:41:25;;;;;;;3.45;1.10;;;12.80;68.50;;;;;;5065142;28;20029;-80
2021/05/26 10:43:57;;;;;;;1.45;1.05;;;12.80;68.30;;;;;;5066017;28;20033;-79
2021/05/26 10:46:34;;;;;;;2.65;1.13;;;12.80;68.60;;;;;;5046524;28;20072;-79
2021/05/26 10:49:00;;;;;;;3.78;1.10;;;12.90;67.90;;;;;;5065248;28;20013;-79
2021/05/26 10:51:52;;;;;;;2.47;1.00;;;12.90;68.10;;;;;;5060232;28;20033;-79
2021/05/26 10:54:39;;;;;;;3.55;1.00;;;13.00;68.20;;;;;;5061227;28;20363;-79
2021/05/26 10:57:07;;;;;;;6.20;1.17;;;13.00;67.80;;;;;;5062829;28;20059;-80
2021/05/26 10:59:33;;;;;;;1.00;0.90;;;13.00;66.10;;;;;;5065668;28;20064;-79
2021/05/26 11:02:07;;;;;;;2.22;1.30;;;13.00;67.20;;;;;;5065559;28;20036;-79
2021/05/26 11:04:34;;;;;;;2.33;0.95;;;12.90;64.20;;;;;;5063779;28;20055;-79
2021/05/26 11:07:18;;;;;;;2.50;1.35;;;12.90;63.20;;;;;;5067981;28;20403;-80
2021/05/26 11:10:05;;;;;;;2.72;1.25;;;12.90;64.40;;;;;;5047825;28;20031;-79
2021/05/26 11:12:56;;;;;;;2.08;1.05;;;12.90;64.30;;;;;;5066831;28;20062;-79
2021/05/26 11:15:40;;;;;;;2.88;1.00;;;12.90;64.20;;;;;;5065661;28;20417;-79
2021/05/26 11:18:12;;;;;;;2.67;1.02;;;12.90;64.50;;;;;;5049776;28;20020;-79
2021/05/26 11:20:38;;;;;;;5.28;1.13;;;12.80;65.60;;;;;;5064885;28;20086;-80
2021/05/26 11:23:14;;;;;;;1.58;1.00;;;12.80;65.40;;;;;;5069167;28;20028;-79
2021/05/26 11:25:49;;;;;;;1.50;0.98;;;12.90;66.70;;;;;;5067010;28;20016;-79
2021/05/26 11:28:31;;;;;;;5.18;1.35;;;12.80;67.70;;;;;;5063306;28;20105;-80
2021/05/26 11:31:04;;;;;;;1.02;1.00;;;12.90;66.00;;;;;;5070274;28;20073;-79
2021/05/26 11:33:30;;;;;;;3.75;1.10;;;12.80;67.00;;;;;;5070198;28;20024;-79
2021/05/26 11:36:02;;;;;;;2.25;1.30;;;12.80;65.90;;;;;;5067027;28;20109;-80
2021/05/26 11:38:28;;;;;;;3.13;1.85;;;12.80;67.80;;;;;;5070100;28;20013;-79
2021/05/26 11:40:54;;;;;;;6.70;1.45;;;12.80;67.00;;;;;;5048364;28;20020;-79
2021/05/26 11:43:23;;;;;;;1.95;1.00;;;12.80;67.90;;;;;;5069150;28;20025;-79
2021/05/26 11:46:09;;;;;;;3.75;1.40;;;12.80;68.90;;;;;;5051371;28;20086;-79
2021/05/26 11:48:36;;;;;;;4.38;1.20;;;12.80;71.30;;;;;;5049758;28;20511;-79
2021/05/26 11:51:02;;;;;;;3.33;1.13;;;12.70;70.70;;;;;;5069685;28;20048;-79
2021/05/26 11:53:28;;;;;;;3.75;1.52;;;12.60;72.00;;;;;;5064989;28;20424;-79
2021/05/26 11:56:02;;;;;;;3.30;1.40;;;12.60;70.20;;;;;;5062346;28;20035;-79
2021/05/26 11:58:38;;;;;;;4.45;1.52;;;12.50;72.30;;;;;;5057120;28;20062;-78
2021/05/26 12:01:12;;;;;;;3.05;1.50;;;12.50;73.10;;;;;;5059928;28;20090;-79
2021/05/26 12:03:38;;;;;;;2.55;1.50;;;12.50;73.10;;;;;;5068391;28;20478;-79
2021/05/26 12:06:04;;;;;;;4.03;1.67;;;12.50;73.80;;;;;;5070204;28;20105;-78
2021/05/26 12:08:33;;;;;;;2.35;1.13;;;12.40;71.50;;;;;;5069788;28;20032;-79
2021/05/26 12:11:05;;;;;;;3.60;1.42;;;12.40;72.80;;;;;;5072844;28;20066;-79
2021/05/26 12:13:33;;;;;;;4.13;1.58;;;12.40;73.60;;;;;;5070463;28;20077;-78
2021/05/26 12:16:02;;;;;;;1.83;1.20;;;12.40;72.40;;;;;;5067980;28;20025;-79
2021/05/26 12:18:28;;;;;;;2.67;1.23;;;12.40;73.80;;;;;;5066937;28;20024;-79
2021/05/26 12:20:56;;;;;;;1.85;1.45;;;12.40;73.70;;;;;;5070519;28;20455;-78
2021/05/26 12:23:41;;;;;;;6.53;2.17;;;12.40;73.30;;;;;;5071349;28;20687;-78
2021/05/26 12:26:25;;;;;;;3.28;1.60;;;12.40;74.20;;;;;;5071821;28;20478;-78
2021/05/26 12:28:56;;;;;;;2.00;1.50;;;12.40;74.80;;;;;;5070945;28;20023;-78
2021/05/26 12:31:23;;;;;;;2.30;1.42;;;12.40;74.40;;;;;;5070878;28;20041;-79
2021/05/26 12:33:53;;;;;;;5.32;1.70;;;12.30;74.90;;;;;;5070597;28;20020;-79
2021/05/26 12:36:24;;;;;;;2.97;1.45;;;12.40;75.30;;;;;;5075009;28;20020;-79
2021/05/26 12:39:03;;;;;;;4.95;1.50;;;12.40;75.20;;;;;;5067739;28;20028;-79
2021/05/26 12:41:36;;;;;;;4.97;1.58;;;12.40;75.00;;;;;;5071501;28;20032;-78
2021/05/26 12:44:08;;;;;;;3.30;1.90;;;12.40;74.30;;;;;;5072022;28;20025;-79
2021/05/26 12:46:34;;;;;;;3.53;1.63;;;12.40;77.30;;;;;;5047580;28;20562;-79
2021/05/26 12:48:59;;;;;;;3.92;1.65;;;12.30;76.80;;;;;;5074544;28;20119;-79
2021/05/26 12:51:25;;;;;;;4.40;1.70;;;12.30;76.20;;;;;;5052759;28;20025;-79
2021/05/26 12:53:57;;;;;;;4.28;1.60;;;12.30;78.00;;;;;;5075979;28;20389;-79
2021/05/26 12:56:25;;;;;;;2.15;1.45;;;12.30;77.80;;;;;;5070539;28;20130;-79
2021/05/26 12:58:51;;;;;;;4.25;1.67;;;12.30;78.30;;;;;;5071764;28;20036;-79
2021/05/26 13:01:16;;;;;;;2.78;1.50;;;12.20;78.90;;;;;;5074088;28;20561;-79